createdAt,value
2019-03-08T00:01:15.489Z,98558.61
2019-03-08T00:03:44.298Z,98551.36
2019-03-08T00:06:13.235Z,98560.91
2019-03-08T00:08:42.046Z,98561.21
2019-03-08T00:11:10.910Z,98554.52
2019-03-08T00:13:39.673Z,98546.44
2019-03-08T00:16:08.611Z,98546.53
2019-03-08T00:18:37.558Z,98549.25
2019-03-08T00:21:06.421Z,98548.52
2019-03-08T00:23:35.667Z,98556.98
2019-03-08T00:26:04.486Z,98559.22
2019-03-08T00:28:33.327Z,98565.77
2019-03-08T00:31:02.138Z,98563.91
2019-03-08T00:33:30.966Z,98568.30
2019-03-08T00:35:59.720Z,98565.91
2019-03-08T00:38:28.795Z,98558.10
2019-03-08T00:40:57.702Z,98567.66
2019-03-08T00:43:26.607Z,98570.69
2019-03-08T00:45:55.561Z,98565.59
2019-03-08T00:48:24.398Z,98549.38
2019-03-08T00:50:53.278Z,98571.40
2019-03-08T00:53:22.419Z,98574.20
2019-03-08T00:55:51.288Z,98588.05
2019-03-08T00:58:20.148Z,98580.23
2019-03-08T01:00:49.069Z,98573.55
2019-03-08T01:03:17.986Z,98573.55
2019-03-08T01:05:46.776Z,98592.34
2019-03-08T01:08:15.680Z,98586.13
2019-03-08T01:10:44.584Z,98595.14
2019-03-08T01:13:13.499Z,98600.88
2019-03-08T01:15:42.320Z,98602.30
2019-03-08T01:18:11.249Z,98600.14
2019-03-08T01:20:40.063Z,98609.16
2019-03-08T01:23:09.028Z,98615.69
2019-03-08T01:25:37.913Z,98595.66
2019-03-08T01:28:11.381Z,98611.13
2019-03-08T01:30:40.469Z,98598.77
2019-03-08T01:33:09.253Z,98599.33
2019-03-08T01:35:38.197Z,98616.44
2019-03-08T01:38:07.087Z,98609.43
2019-03-08T01:40:35.964Z,98610.31
2019-03-08T01:43:04.881Z,98614.70
2019-03-08T01:45:33.876Z,98611.48
2019-03-08T01:48:02.997Z,98607.73
2019-03-08T01:50:32.019Z,98615.63
2019-03-08T01:53:00.929Z,98593.71
2019-03-08T01:55:29.828Z,98607.02
2019-03-08T01:57:58.688Z,98611.70
2019-03-08T02:00:27.539Z,98599.50
2019-03-08T02:02:56.473Z,98613.92
2019-03-08T02:05:25.280Z,98602.85
2019-03-08T02:07:54.286Z,98609.91
2019-03-08T02:10:23.086Z,98611.83
2019-03-08T02:12:51.819Z,98606.73
2019-03-08T02:15:20.652Z,98612.20
2019-03-08T02:17:49.696Z,98606.78
2019-03-08T02:20:19.834Z,98599.77
2019-03-08T02:22:48.676Z,98614.96
2019-03-08T02:25:17.619Z,98611.22
2019-03-08T02:27:46.480Z,98600.14
2019-03-08T02:30:16.320Z,98616.72
2019-03-08T02:32:45.226Z,98609.44
2019-03-08T02:35:14.291Z,98620.59
2019-03-08T02:37:43.163Z,98612.22
2019-03-08T02:40:29.419Z,98616.61
2019-03-08T02:42:58.413Z,98623.14
2019-03-08T02:45:27.213Z,98634.25
2019-03-08T02:47:56.107Z,98637.05
2019-03-08T02:50:24.910Z,98638.95
2019-03-08T02:52:53.702Z,98646.05
2019-03-08T02:55:22.554Z,98643.89
2019-03-08T02:57:51.729Z,98649.04
2019-03-08T03:00:20.660Z,98654.22
2019-03-08T03:02:49.475Z,98640.75
2019-03-08T03:05:18.307Z,98654.84
2019-03-08T03:07:47.259Z,98649.19
2019-03-08T03:10:16.094Z,98666.52
2019-03-08T03:12:45.064Z,98668.99
2019-03-08T03:15:14.081Z,98667.39
2019-03-08T03:17:42.900Z,98684.75
2019-03-08T03:20:11.736Z,98677.50
2019-03-08T03:22:40.700Z,98688.89
2019-03-08T03:25:10.142Z,98698.09
2019-03-08T03:27:38.952Z,98698.66
2019-03-08T03:30:08.285Z,98707.89
2019-03-08T03:32:37.190Z,98713.63
2019-03-08T03:35:06.320Z,98685.80
2019-03-08T03:37:35.179Z,98731.53
2019-03-08T03:40:04.812Z,98742.64
2019-03-08T03:42:33.732Z,98753.23
2019-03-08T03:45:02.632Z,98762.16
2019-03-08T03:47:31.394Z,98757.61
2019-03-08T03:50:00.300Z,98764.38
2019-03-08T03:52:28.941Z,98763.65
2019-03-08T03:54:57.849Z,98749.84
2019-03-08T03:57:26.711Z,98754.45
2019-03-08T03:59:55.423Z,98758.03
2019-03-08T04:02:24.325Z,98775.07
2019-03-08T04:04:53.277Z,98776.73
2019-03-08T04:07:22.052Z,98786.77
2019-03-08T04:09:50.946Z,98781.11
2019-03-08T04:12:19.687Z,98790.31
2019-03-08T04:14:48.574Z,98790.87
2019-03-08T04:17:17.408Z,98795.23
2019-03-08T04:19:46.251Z,98803.67
2019-03-08T04:22:15.135Z,98796.10
2019-03-08T04:24:43.980Z,98812.10
2019-03-08T04:27:12.696Z,98805.61
2019-03-08T04:29:41.552Z,98812.94
2019-03-08T04:32:10.348Z,98786.18
2019-03-08T04:34:39.156Z,98818.66
2019-03-08T04:37:07.997Z,98818.17
2019-03-08T04:39:36.961Z,98830.91
2019-03-08T04:42:05.902Z,98827.13
2019-03-08T04:44:34.662Z,98835.24
2019-03-08T04:47:03.500Z,98831.25
2019-03-08T04:49:32.451Z,98836.66
2019-03-08T04:52:01.342Z,98847.23
2019-03-08T04:54:30.258Z,98849.39
2019-03-08T04:56:59.140Z,98849.95
2019-03-08T04:59:27.969Z,98866.49
2019-03-08T05:01:56.760Z,98865.42
2019-03-08T05:04:25.568Z,98867.88
2019-03-08T05:06:54.550Z,98870.89
2019-03-08T05:09:23.396Z,98878.21
2019-03-08T05:11:52.317Z,98865.79
2019-03-08T05:14:21.061Z,98876.06
2019-03-08T05:16:49.815Z,98882.89
2019-03-08T05:19:18.673Z,98887.75
2019-03-08T05:21:47.785Z,98901.55
2019-03-08T05:24:16.627Z,98890.73
2019-03-08T05:26:45.408Z,98899.64
2019-03-08T05:29:14.285Z,98901.00
2019-03-08T05:31:43.178Z,98901.83
2019-03-08T05:34:11.965Z,98880.18
2019-03-08T05:36:40.889Z,98914.80
2019-03-08T05:39:11.854Z,98931.04
2019-03-08T05:41:40.666Z,98919.91
2019-03-08T05:44:09.520Z,98923.17
2019-03-08T05:46:38.277Z,98936.14
2019-03-08T05:49:07.016Z,98936.70
2019-03-08T05:51:36.057Z,98948.34
2019-03-08T05:54:04.905Z,98961.88
2019-03-08T05:56:33.804Z,98960.00
2019-03-08T05:59:02.516Z,98960.83
2019-03-08T06:01:31.390Z,98965.69
2019-03-08T06:04:00.335Z,98971.96
2019-03-08T06:06:29.484Z,98984.14
2019-03-08T06:08:58.294Z,98992.01
2019-03-08T06:11:27.130Z,99004.73
2019-03-08T06:13:55.876Z,99009.90
2019-03-08T06:16:24.821Z,99015.00
2019-03-08T06:18:53.696Z,99029.63
2019-03-08T06:21:22.578Z,99016.96
2019-03-08T06:23:52.621Z,99034.55
2019-03-08T06:26:21.451Z,99043.46
2019-03-08T06:28:52.010Z,99048.37
2019-03-08T06:31:20.836Z,99052.19
2019-03-08T06:33:49.741Z,99052.70
2019-03-08T06:36:18.967Z,99068.69
2019-03-08T06:38:47.854Z,99065.98
2019-03-08T06:41:16.669Z,99068.44
2019-03-08T06:43:45.573Z,99081.97
2019-03-08T06:46:14.411Z,99101.95
2019-03-08T06:48:43.252Z,99100.05
2019-03-08T06:51:12.212Z,99107.34
2019-03-08T06:53:41.148Z,99128.94
2019-03-08T06:56:09.999Z,99126.24
2019-03-08T06:59:02.730Z,99136.72
2019-03-08T07:01:35.268Z,99146.72
2019-03-08T07:04:04.104Z,99156.94
2019-03-08T07:06:33.495Z,99163.94
2019-03-08T07:09:02.352Z,99169.34
2019-03-08T07:11:31.174Z,99174.16
2019-03-08T07:13:59.987Z,99189.77
2019-03-08T07:16:29.060Z,99197.83
2019-03-08T07:18:57.800Z,99205.84
2019-03-08T07:21:45.600Z,99202.81
2019-03-08T07:24:30.334Z,99223.62
2019-03-08T07:27:20.948Z,99226.30
2019-03-08T07:30:07.506Z,99231.67
2019-03-08T07:33:10.566Z,99237.86
2019-03-08T07:35:58.342Z,99240.27
2019-03-08T07:38:49.855Z,99262.13
2019-03-08T07:41:49.459Z,99261.31
2019-03-08T07:44:40.437Z,99278.38
2019-03-08T07:47:24.738Z,99287.70
2019-03-08T07:50:11.226Z,99301.81
2019-03-08T07:52:53.137Z,99324.08
2019-03-08T07:55:28.263Z,99327.09
2019-03-08T07:58:09.693Z,99339.33
2019-03-08T08:00:57.557Z,99336.38
2019-03-08T08:03:31.057Z,99347.81
2019-03-08T08:06:27.939Z,99360.05
2019-03-08T08:09:06.692Z,99362.77
2019-03-08T08:11:59.374Z,99366.91
2019-03-08T08:14:39.973Z,99372.38
2019-03-08T08:17:39.811Z,99383.53
2019-03-08T08:20:39.014Z,99390.17
2019-03-08T08:23:34.658Z,99412.50
2019-03-08T08:26:19.678Z,99407.78
2019-03-08T08:29:13.684Z,99418.17
2019-03-08T08:31:57.536Z,99423.97
2019-03-08T08:34:36.232Z,99428.11
2019-03-08T08:37:18.294Z,99441.65
2019-03-08T08:40:09.290Z,99445.23
2019-03-08T08:42:49.149Z,99440.69
2019-03-08T08:45:45.798Z,99452.34
2019-03-08T08:48:33.611Z,99454.52
2019-03-08T08:51:17.370Z,99462.93
2019-03-08T08:53:57.730Z,99473.44
2019-03-08T08:56:37.530Z,99495.59
2019-03-08T08:59:24.249Z,99513.42
2019-03-08T09:02:10.747Z,99509.63
2019-03-08T09:05:01.754Z,99527.20
2019-03-08T09:07:49.622Z,99525.28
2019-03-08T09:10:28.657Z,99535.80
2019-03-08T09:13:16.780Z,99537.33
2019-03-08T09:16:16.713Z,99551.33
2019-03-08T09:19:07.665Z,99566.13
2019-03-08T09:22:00.953Z,99577.98
2019-03-08T09:24:39.196Z,99557.94
2019-03-08T09:27:22.779Z,99555.78
2019-03-08T09:30:11.140Z,99570.92
2019-03-08T09:32:59.475Z,99569.56
2019-03-08T09:35:35.826Z,99566.86
2019-03-08T09:38:22.186Z,99571.46
2019-03-08T09:41:15.843Z,99577.65
2019-03-08T09:44:01.659Z,99589.53
2019-03-08T09:46:49.336Z,99587.58
2019-03-08T09:49:26.882Z,99597.25
2019-03-08T09:52:14.749Z,99595.09
2019-03-08T09:55:08.819Z,99605.37
2019-03-08T09:57:56.825Z,99611.03
2019-03-08T10:00:36.270Z,99619.93
2019-03-08T10:03:27.063Z,99620.45
2019-03-08T10:06:30.078Z,99637.72
2019-03-08T10:09:18.146Z,99637.17
2019-03-08T10:12:09.635Z,99626.03
2019-03-08T10:14:56.487Z,99637.66
2019-03-08T10:17:43.155Z,99639.50
2019-03-08T10:20:33.727Z,99648.72
2019-03-08T10:23:20.307Z,99651.42
2019-03-08T10:25:55.702Z,99659.54
2019-03-08T10:28:34.147Z,99662.82
2019-03-08T10:31:13.001Z,99671.77
2019-03-08T10:34:06.641Z,99666.91
2019-03-08T10:36:54.504Z,99679.34
2019-03-08T10:39:37.018Z,99681.48
2019-03-08T10:42:21.296Z,99688.70
2019-03-08T10:45:04.562Z,99694.26
2019-03-08T10:47:57.380Z,99704.19
2019-03-08T10:50:37.554Z,99706.50
2019-03-08T10:53:21.368Z,99712.06
2019-03-08T10:56:04.410Z,99713.89
2019-03-08T10:58:55.502Z,99714.66
2019-03-08T11:01:49.308Z,99711.94
2019-03-08T11:04:32.292Z,99714.02
2019-03-08T11:07:25.948Z,99726.63
2019-03-08T11:10:11.336Z,99725.70
2019-03-08T11:13:07.909Z,99727.00
2019-03-08T11:16:04.587Z,99742.17
2019-03-08T11:18:54.618Z,99741.16
2019-03-08T11:21:54.521Z,99731.66
2019-03-08T11:24:41.181Z,99733.77
2019-03-08T11:27:32.228Z,99741.16
2019-03-08T11:30:17.233Z,99748.87
2019-03-08T11:33:04.131Z,99757.41
2019-03-08T11:35:58.172Z,99761.27
2019-03-08T11:38:42.951Z,99770.28
2019-03-08T11:41:31.831Z,99781.41
2019-03-08T11:44:23.747Z,99795.53
2019-03-08T11:47:11.563Z,99822.08
2019-03-08T11:50:05.201Z,99840.78
2019-03-08T11:53:02.133Z,99856.52
2019-03-08T11:55:58.899Z,99855.16
2019-03-08T11:58:39.640Z,99853.29
2019-03-08T12:01:28.511Z,99854.09
2019-03-08T12:04:16.230Z,99855.37
2019-03-08T12:06:58.352Z,99862.89
2019-03-08T12:09:58.145Z,99871.48
2019-03-08T12:12:54.939Z,99871.99
2019-03-08T12:15:45.986Z,99877.64
2019-03-08T12:18:31.797Z,99895.27
2019-03-08T12:21:19.686Z,99884.64
2019-03-08T12:24:25.808Z,99891.09
2019-03-08T12:26:59.973Z,99887.25
2019-03-08T12:29:47.867Z,99886.08
2019-03-08T12:32:35.672Z,99877.61
2019-03-08T12:35:22.952Z,99874.89
2019-03-08T12:38:09.458Z,99890.11
2019-03-08T12:40:57.326Z,99895.28
2019-03-08T12:43:45.088Z,99885.20
2019-03-08T12:46:29.707Z,99890.84
2019-03-08T12:49:26.869Z,99896.26
2019-03-08T12:52:20.723Z,99897.88
2019-03-08T12:55:11.349Z,99901.98
2019-03-08T12:57:59.227Z,99903.67
2019-03-08T13:00:45.889Z,99911.07
2019-03-08T13:03:39.981Z,99948.82
2019-03-08T13:06:14.128Z,99948.59
2019-03-08T13:09:00.405Z,99949.75
2019-03-08T13:11:33.165Z,99951.12
2019-03-08T13:14:00.164Z,99941.38
2019-03-08T13:16:29.031Z,99947.92
2019-03-08T13:18:57.986Z,99932.78
2019-03-08T13:21:26.876Z,99933.36
2019-03-08T13:23:55.887Z,99936.88
2019-03-08T13:26:24.907Z,99938.78
2019-03-08T13:28:54.291Z,99930.36
2019-03-08T13:31:23.138Z,99934.71
2019-03-08T13:33:55.163Z,99930.36
2019-03-08T13:36:24.026Z,99931.17
2019-03-08T13:38:53.108Z,99927.94
2019-03-08T13:41:22.384Z,99926.03
2019-03-08T13:43:51.303Z,99925.77
2019-03-08T13:46:20.306Z,99935.00
2019-03-08T13:48:51.395Z,99942.58
2019-03-08T13:51:19.946Z,99950.69
2019-03-08T13:53:48.978Z,99941.75
2019-03-08T13:56:17.924Z,99943.89
2019-03-08T13:58:47.389Z,99948.99
2019-03-08T14:01:16.365Z,99947.87
2019-03-08T14:03:45.207Z,99952.17
2019-03-08T14:06:13.998Z,99951.10
2019-03-08T14:08:43.321Z,99957.91
2019-03-08T14:11:12.534Z,99960.94
2019-03-08T14:13:41.387Z,99973.41
2019-03-08T14:16:10.487Z,99972.09
2019-03-08T14:18:39.459Z,99975.65
2019-03-08T14:21:08.469Z,99976.73
2019-03-08T14:23:37.615Z,99981.38
2019-03-08T14:26:06.697Z,99981.91
2019-03-08T14:28:35.525Z,99977.58
2019-03-08T14:31:26.168Z,99976.75
2019-03-08T14:33:55.228Z,99973.23
2019-03-08T14:36:24.281Z,99971.84
2019-03-08T14:38:53.230Z,99974.81
2019-03-08T14:41:31.870Z,99975.34
2019-03-08T14:44:26.389Z,99980.22
2019-03-08T14:47:04.657Z,99970.45
2019-03-08T14:49:33.660Z,99975.58
2019-03-08T14:52:02.654Z,99982.62
2019-03-08T14:54:31.606Z,99980.72
2019-03-08T14:57:00.601Z,99984.23
2019-03-08T14:59:29.520Z,99982.09
2019-03-08T15:01:58.542Z,99990.22
2019-03-08T15:04:29.468Z,100000.80
2019-03-08T15:07:01.309Z,99997.02
2019-03-08T15:09:29.422Z,99999.22
2019-03-08T15:12:00.603Z,100005.72
2019-03-08T15:14:30.307Z,100010.33
2019-03-08T15:17:08.871Z,100016.83
2019-03-08T15:19:30.913Z,100025.27
2019-03-08T15:21:59.965Z,100026.64
2019-03-08T15:24:37.922Z,100031.79
2019-03-08T15:26:59.637Z,100025.84
2019-03-08T15:29:28.549Z,100023.42
2019-03-08T15:31:57.683Z,100030.73
2019-03-08T15:34:26.685Z,100030.47
2019-03-08T15:36:55.639Z,100042.12
2019-03-08T15:39:24.775Z,100033.99
2019-03-08T15:41:53.940Z,100031.59
2019-03-08T15:44:24.468Z,100027.23
2019-03-08T15:46:55.821Z,100033.76
2019-03-08T15:49:26.581Z,100031.07
2019-03-08T15:51:55.494Z,100030.53
2019-03-08T15:54:24.556Z,100032.70
2019-03-08T15:56:53.620Z,100051.92
2019-03-08T15:59:22.496Z,100056.55
2019-03-08T16:01:51.506Z,100061.98
2019-03-08T16:04:20.874Z,100062.50
2019-03-08T16:06:49.718Z,100055.75
2019-03-08T16:09:18.906Z,100057.63
2019-03-08T16:11:48.030Z,100059.81
2019-03-08T16:14:17.002Z,100058.98
2019-03-08T16:16:45.893Z,100060.09
2019-03-08T16:19:14.792Z,100059.56
2019-03-08T16:21:46.894Z,100056.84
2019-03-08T16:24:14.610Z,100062.27
2019-03-08T16:26:43.968Z,100062.22
2019-03-08T16:29:13.218Z,100059.52
2019-03-08T16:32:13.373Z,100058.19
2019-03-08T16:34:42.751Z,100068.70
2019-03-08T16:37:17.026Z,100060.34
2019-03-08T16:40:11.381Z,100068.73
2019-03-08T16:42:47.340Z,100066.81
2019-03-08T16:45:32.291Z,100066.28
2019-03-08T16:48:17.597Z,100066.84
2019-03-08T16:51:15.401Z,100071.69
2019-03-08T16:53:54.060Z,100065.48
2019-03-08T16:56:45.355Z,100064.11
2019-03-08T16:59:23.351Z,100061.41
2019-03-08T17:02:05.821Z,100070.61
2019-03-08T17:04:54.443Z,100065.45
2019-03-08T17:07:41.481Z,100071.14
2019-03-08T17:10:28.726Z,100067.36
2019-03-08T17:13:23.747Z,100065.19
2019-03-08T17:16:24.286Z,100062.77
2019-03-08T17:19:11.420Z,100066.28
2019-03-08T17:21:51.823Z,100061.70
2019-03-08T17:24:51.983Z,100063.33
2019-03-08T17:27:49.460Z,100057.89
2019-03-08T17:30:31.693Z,100069.23
2019-03-08T17:33:22.904Z,100064.03
2019-03-08T17:36:01.119Z,100060.72
2019-03-08T17:38:45.956Z,100061.25
2019-03-08T17:41:33.394Z,100055.77
2019-03-08T17:44:16.848Z,100055.17
2019-03-08T17:47:07.914Z,100054.33
2019-03-08T17:49:54.582Z,100052.37
2019-03-08T17:52:54.646Z,100059.61
2019-03-08T17:55:48.839Z,100068.25
2019-03-08T17:58:35.989Z,100066.31
2019-03-08T18:01:15.097Z,100070.36
2019-03-08T18:04:02.552Z,100070.62
2019-03-08T18:06:49.627Z,100063.54
2019-03-08T18:09:31.879Z,100064.64
2019-03-08T18:12:24.063Z,100067.67
2019-03-08T18:15:12.939Z,100067.50
2019-03-08T18:18:16.649Z,100065.61
2019-03-08T18:20:58.488Z,100068.66
2019-03-08T18:23:35.746Z,100057.56
2019-03-08T18:26:17.766Z,100057.79
2019-03-08T18:29:01.952Z,100058.28
2019-03-08T18:31:45.524Z,100060.97
2019-03-08T18:34:43.042Z,100052.75
2019-03-08T18:37:25.940Z,100061.09
2019-03-08T18:40:20.615Z,100064.48
2019-03-08T18:42:57.300Z,100075.45
2019-03-08T18:45:46.406Z,100069.82
2019-03-08T18:48:34.330Z,100062.86
2019-03-08T18:51:21.376Z,100067.33
2019-03-08T18:54:09.460Z,100069.66
2019-03-08T18:57:09.419Z,100062.81
2019-03-08T18:59:51.624Z,100064.05
2019-03-08T19:02:36.590Z,100067.98
2019-03-08T19:05:37.888Z,100060.28
2019-03-08T19:08:26.263Z,100044.56
2019-03-08T19:11:23.551Z,100052.91
2019-03-08T19:14:11.193Z,100052.00
2019-03-08T19:17:02.830Z,100047.62
2019-03-08T19:19:55.034Z,100050.08
2019-03-08T19:22:52.625Z,100049.78
2019-03-08T19:25:50.275Z,100044.05
2019-03-08T19:28:38.692Z,100040.25
2019-03-08T19:31:32.968Z,100041.61
2019-03-08T19:34:12.771Z,100041.88
2019-03-08T19:36:51.999Z,100041.63
2019-03-08T19:39:43.154Z,100039.77
2019-03-08T19:42:38.159Z,100034.94
2019-03-08T19:45:22.719Z,100036.61
2019-03-08T19:48:10.343Z,100041.86
2019-03-08T19:50:58.482Z,100038.95
2019-03-08T19:53:54.745Z,100036.77
2019-03-08T19:56:49.483Z,100036.78
2019-03-08T19:59:29.577Z,100032.94
2019-03-08T20:02:15.409Z,100027.48
2019-03-08T20:04:57.697Z,100032.48
2019-03-08T20:07:39.543Z,100029.32
2019-03-08T20:10:44.402Z,100031.21
2019-03-08T20:13:42.234Z,100027.37
2019-03-08T20:16:34.876Z,100021.13
2019-03-08T20:19:24.297Z,100020.88
2019-03-08T20:22:10.395Z,100010.26
2019-03-08T20:25:11.730Z,100008.95
2019-03-08T20:27:54.877Z,99998.64
2019-03-08T20:30:42.193Z,99990.61
2019-03-08T20:33:34.281Z,99993.69
2019-03-08T20:36:23.619Z,100000.32
2019-03-08T20:39:11.167Z,100004.17
2019-03-08T20:42:07.188Z,99995.83
2019-03-08T20:44:49.616Z,99996.71
2019-03-08T20:47:23.131Z,99987.56
2019-03-08T20:49:53.059Z,99991.19
2019-03-08T20:52:23.471Z,99987.16
2019-03-08T20:54:53.294Z,99986.92
2019-03-08T20:57:23.334Z,99986.21
2019-03-08T20:59:53.771Z,99981.90
2019-03-08T21:02:24.085Z,99984.94
2019-03-08T21:04:54.331Z,99977.95
2019-03-08T21:07:24.723Z,99981.83
2019-03-08T21:09:55.275Z,99987.83
2019-03-08T21:12:25.640Z,99984.10
2019-03-08T21:14:56.616Z,99979.78
2019-03-08T21:17:26.248Z,99988.56
2019-03-08T21:19:55.919Z,99976.38
2019-03-08T21:22:26.404Z,99983.72
2019-03-08T21:24:56.163Z,99984.27
2019-03-08T21:27:26.548Z,99980.19
2019-03-08T21:29:57.171Z,99985.63
2019-03-08T21:32:27.329Z,99976.67
2019-03-08T21:34:57.375Z,99983.47
2019-03-08T21:37:27.626Z,99973.95
2019-03-08T21:39:57.762Z,99973.71
2019-03-08T21:42:28.262Z,99976.73
2019-03-08T21:44:57.994Z,99968.34
2019-03-08T21:47:27.557Z,99961.03
2019-03-08T21:49:56.962Z,99961.80
2019-03-08T21:52:26.121Z,99962.88
2019-03-08T21:54:55.540Z,99958.46
2019-03-08T21:57:25.660Z,99954.87
2019-03-08T21:59:55.176Z,99953.95
2019-03-08T22:02:24.629Z,99949.21
2019-03-08T22:04:58.184Z,99954.02
2019-03-08T22:07:27.955Z,99941.41
2019-03-08T22:10:31.544Z,99939.11
2019-03-08T22:13:00.719Z,99922.41
2019-03-08T22:15:30.244Z,99928.87
2019-03-08T22:17:59.520Z,99928.81
2019-03-08T22:20:28.670Z,99927.93
2019-03-08T22:22:57.967Z,99917.30
2019-03-08T22:25:27.451Z,99921.94
2019-03-08T22:27:56.823Z,99914.63
2019-03-08T22:30:26.337Z,99900.50
2019-03-08T22:32:55.690Z,99899.75
2019-03-08T22:35:24.739Z,99895.41
2019-03-08T22:37:54.060Z,99895.52
2019-03-08T22:40:23.293Z,99880.58
2019-03-08T22:42:52.287Z,99880.94
2019-03-08T22:45:21.286Z,99864.39
2019-03-08T22:47:50.243Z,99870.44
2019-03-08T22:50:19.722Z,99859.08
2019-03-08T22:52:48.891Z,99848.28
2019-03-08T22:55:18.121Z,99839.38
2019-03-08T22:57:47.075Z,99832.04
2019-03-08T23:00:25.769Z,99821.77
2019-03-08T23:02:54.833Z,99824.27
2019-03-08T23:05:23.674Z,99810.72
2019-03-08T23:07:52.830Z,99806.16
2019-03-08T23:10:21.852Z,99811.41
2019-03-08T23:12:52.328Z,99796.47
2019-03-08T23:15:21.483Z,99791.64
2019-03-08T23:17:50.400Z,99792.47
2019-03-08T23:20:19.351Z,99783.88
2019-03-08T23:22:48.327Z,99787.97
2019-03-08T23:25:17.268Z,99786.66
2019-03-08T23:27:55.643Z,99783.72
2019-03-08T23:30:28.020Z,99785.13
2019-03-08T23:32:57.235Z,99778.91
2019-03-08T23:35:26.370Z,99783.00
2019-03-08T23:37:55.762Z,99783.05
2019-03-08T23:40:24.756Z,99781.71
2019-03-08T23:42:53.606Z,99773.36
2019-03-08T23:45:22.531Z,99777.45
2019-03-08T23:47:51.399Z,99766.39
2019-03-08T23:50:20.278Z,99762.33
2019-03-08T23:52:49.205Z,99762.93
2019-03-08T23:55:18.054Z,99760.27
2019-03-08T23:57:47.005Z,99751.33
